»·PEaware :: N523JE KPSP-KDAL

N523JE :: KPSP-KDAL

FLIGHT INFORMATION

Flight Status: Arrived
Operator: Privately registered:
United States
More flights under this callsign
Pilot: Drew L. (13237)
Aircraft: BOEING 727-200
(B722)
More flights by this aircraft type
Origin: KPSP Palm Springs Intl
United States
Destination: KDAL Dallas Love
United States
More flights between these airports :: More routes between these airports
Route: CATH1 PSP YCDIL J74 TXO GREGS9
File this flight plan on PilotEdge
Remarks:
Altitude:
(Current/Filed)
29,000ft
Speed:
(Current/Filed)
490kts
Departed: 15-Jun-20 08:10 PM
Arrived: 15-Jun-20 10:29 PM
Distance/Time
Traveled:
986nm/2:18
Distance/Time
To Go:
Arrived

Flight Plot

Page will automatically refresh every two minutes.

Flight plan parsing failed; only flown route is shown


Map Options




Map Legend


Flown Route
Filed Route
Departure Airport
Arrival Airport
Navaid (VOR, NDB)
Fix

Horizontal Profiles

Position Reports

Time Latitude Longitude Heading Altitude Ground
Speed
15-Jun-20 19:51 33.822498 -116.496102 232 488ft 0kts
15-Jun-20 19:52 33.822498 -116.496102 232 488ft 0kts
15-Jun-20 19:53 33.822498 -116.496102 232 488ft 0kts
15-Jun-20 19:54 33.822498 -116.496102 232 488ft 0kts
15-Jun-20 19:55 33.822498 -116.496102 232 488ft 0kts
15-Jun-20 19:56 33.822498 -116.496102 232 488ft 0kts
15-Jun-20 19:57 33.822498 -116.496102 232 488ft 0kts
15-Jun-20 19:58 33.822498 -116.496102 232 488ft 0kts
15-Jun-20 19:59 33.822498 -116.496102 232 488ft 0kts
15-Jun-20 20:00 33.822498 -116.496102 232 488ft 0kts
15-Jun-20 20:01 33.822498 -116.496102 232 488ft 0kts
15-Jun-20 20:02 33.822498 -116.496102 232 488ft 0kts
15-Jun-20 20:02 33.822498 -116.496102 232 488ft 0kts
15-Jun-20 20:04 33.822498 -116.496102 232 488ft 0kts
15-Jun-20 20:05 33.822498 -116.496102 232 488ft 0kts
15-Jun-20 20:05 33.822497 -116.496104 232 488ft 0kts
15-Jun-20 20:07 33.819733 -116.496219 233 488ft 8kts
15-Jun-20 20:07 33.819461 -116.496663 233 488ft 0kts
15-Jun-20 20:08 33.818798 -116.497805 265 488ft 9kts
15-Jun-20 20:09 33.830192 -116.508134 323 489ft 135kts
15-Jun-20 20:10 33.865065 -116.536153 329 1536ft 154kts
15-Jun-20 20:12 33.915019 -116.565538 10 2753ft 207kts
15-Jun-20 20:12 33.928568 -116.512443 121 4191ft 255kts
15-Jun-20 20:13 33.883837 -116.445845 155 6228ft 274kts
15-Jun-20 20:14 33.828939 -116.375532 119 8260ft 303kts
15-Jun-20 20:15 33.793934 -116.282528 113 10764ft 307kts
15-Jun-20 20:16 33.738124 -116.215362 186 12703ft 308kts
15-Jun-20 20:17 33.698422 -116.287802 293 14413ft 303kts
15-Jun-20 20:18 33.764880 -116.350179 329 16128ft 314kts
15-Jun-20 20:19 33.841163 -116.403494 328 17788ft 320kts
15-Jun-20 20:20 33.921249 -116.389401 56 19006ft 343kts
15-Jun-20 20:21 33.913609 -116.275860 109 19678ft 375kts
15-Jun-20 20:22 33.905550 -116.146942 83 20270ft 402kts
15-Jun-20 20:23 33.918114 -116.013081 76 21703ft 405kts
15-Jun-20 20:24 33.941761 -115.878797 77 22898ft 412kts
15-Jun-20 20:25 33.960906 -115.741641 79 24010ft 419kts
15-Jun-20 20:26 33.977148 -115.601727 80 25015ft 425kts
15-Jun-20 20:27 33.992798 -115.459902 79 25925ft 429kts
15-Jun-20 20:28 34.009291 -115.316389 79 26725ft 434kts
15-Jun-20 20:29 34.026806 -115.171591 79 27442ft 439kts
15-Jun-20 20:30 34.045147 -115.025258 78 28102ft 443kts
15-Jun-20 20:31 34.064627 -114.879005 79 28807ft 444kts
15-Jun-20 20:32 34.084403 -114.730392 79 28818ft 450kts
15-Jun-20 20:33 34.104423 -114.580532 79 28824ft 453kts
15-Jun-20 20:34 34.124939 -114.430174 80 28827ft 456kts
15-Jun-20 20:35 34.138395 -114.279340 84 28826ft 459kts
15-Jun-20 20:36 34.149416 -114.124739 84 28826ft 463kts
15-Jun-20 20:37 34.161123 -113.969856 83 28826ft 466kts
15-Jun-20 20:38 34.173758 -113.813521 83 28826ft 468kts
15-Jun-20 20:39 34.186697 -113.656542 83 28826ft 470kts
15-Jun-20 20:40 34.199461 -113.499106 83 28832ft 472kts
15-Jun-20 20:41 34.211738 -113.341490 83 29042ft 469kts
15-Jun-20 20:42 34.223396 -113.184517 83 29146ft 470kts
15-Jun-20 20:43 34.234912 -113.026927 83 29155ft 472kts
15-Jun-20 20:44 34.246643 -112.868405 84 29165ft 475kts
15-Jun-20 20:45 34.258589 -112.708932 84 29165ft 477kts
15-Jun-20 20:46 34.269999 -112.548408 84 29165ft 479kts
15-Jun-20 20:47 34.280705 -112.387626 84 29164ft 481kts
15-Jun-20 20:48 34.290966 -112.225924 85 29164ft 482kts
15-Jun-20 20:49 34.301121 -112.064216 85 29164ft 484kts
15-Jun-20 20:50 34.311459 -111.901540 84 29173ft 485kts
15-Jun-20 20:51 34.322032 -111.738375 84 29181ft 486kts
15-Jun-20 20:52 34.332724 -111.575703 84 29193ft 487kts
15-Jun-20 20:53 34.342666 -111.412192 85 29192ft 487kts
15-Jun-20 20:54 34.348201 -111.247937 87 29192ft 488kts
15-Jun-20 20:55 34.352318 -111.083618 87 29182ft 489kts
15-Jun-20 20:56 34.357660 -110.918512 87 29194ft 493kts
15-Jun-20 20:57 34.368058 -110.752513 87 29216ft 495kts
15-Jun-20 20:58 34.376651 -110.586370 88 29241ft 497kts
15-Jun-20 20:59 34.382464 -110.419074 89 29239ft 499kts
15-Jun-20 21:00 34.386653 -110.249739 90 29254ft 501kts
15-Jun-20 21:01 34.391668 -110.080763 89 29273ft 503kts
15-Jun-20 21:02 34.398577 -109.911840 88 29313ft 504kts
15-Jun-20 21:03 34.405796 -109.742017 88 29242ft 507kts
15-Jun-20 21:04 34.411431 -109.571362 89 29217ft 508kts
15-Jun-20 21:05 34.416433 -109.399802 89 29220ft 509kts
15-Jun-20 21:06 34.421654 -109.228001 89 29219ft 510kts
15-Jun-20 21:07 34.426497 -109.056345 91 29219ft 511kts
15-Jun-20 21:08 34.426060 -108.883535 93 29249ft 511kts
15-Jun-20 21:09 34.425753 -108.711878 93 29339ft 511kts
15-Jun-20 21:10 34.422483 -108.538965 93 29349ft 513kts
15-Jun-20 21:11 34.419687 -108.366178 92 29343ft 515kts
15-Jun-20 21:12 34.418239 -108.193569 92 29327ft 517kts
15-Jun-20 21:13 34.417607 -108.019345 92 29329ft 518kts
15-Jun-20 21:14 34.416828 -107.844378 92 29329ft 519kts
15-Jun-20 21:15 34.415476 -107.668802 92 29304ft 520kts
15-Jun-20 21:16 34.413303 -107.493958 92 29248ft 522kts
15-Jun-20 21:17 34.410473 -107.317680 93 29247ft 522kts
15-Jun-20 21:18 34.407386 -107.141915 93 29247ft 522kts
15-Jun-20 21:19 34.404035 -106.966586 93 29246ft 522kts
15-Jun-20 21:20 34.398525 -106.791122 92 29248ft 522kts
15-Jun-20 21:21 34.393534 -106.615158 91 29247ft 521kts
15-Jun-20 21:22 34.391250 -106.439485 90 29245ft 521kts
15-Jun-20 21:23 34.390726 -106.264646 90 29247ft 521kts
15-Jun-20 21:24 34.390397 -106.089251 90 29255ft 520kts
15-Jun-20 21:25 34.388180 -105.914241 91 29376ft 518kts
15-Jun-20 21:26 34.383410 -105.740348 91 29438ft 517kts
15-Jun-20 21:27 34.385564 -105.566344 84 29420ft 517kts
15-Jun-20 21:28 34.392394 -105.391925 87 29279ft 521kts
15-Jun-20 21:29 34.398028 -105.215784 87 29246ft 521kts
15-Jun-20 21:30 34.405899 -105.040170 87 29247ft 521kts
15-Jun-20 21:31 34.411209 -104.865220 88 29247ft 521kts
15-Jun-20 21:32 34.417138 -104.689726 87 29247ft 521kts
15-Jun-20 21:33 34.425113 -104.514370 86 29247ft 521kts
15-Jun-20 21:34 34.434659 -104.339672 86 29246ft 521kts
15-Jun-20 21:35 34.444588 -104.164288 86 29247ft 521kts
15-Jun-20 21:36 34.453752 -103.988629 86 29253ft 521kts
15-Jun-20 21:37 34.461615 -103.813735 87 29256ft 521kts
15-Jun-20 21:38 34.468359 -103.637462 87 29256ft 521kts
15-Jun-20 21:39 34.474418 -103.461729 87 29256ft 522kts
15-Jun-20 21:40 34.480407 -103.285448 88 29255ft 522kts
15-Jun-20 21:41 34.486691 -103.110004 87 29255ft 522kts
15-Jun-20 21:42 34.493446 -102.933406 87 29255ft 523kts
15-Jun-20 21:43 34.492110 -102.757878 97 29256ft 523kts
15-Jun-20 21:44 34.472780 -102.583073 98 29251ft 524kts
15-Jun-20 21:46 34.454046 -102.407253 96 29246ft 525kts
15-Jun-20 21:47 34.433693 -102.231364 99 29247ft 526kts
15-Jun-20 21:48 34.411828 -102.056604 99 29240ft 526kts
15-Jun-20 21:49 34.391422 -101.881248 98 29237ft 527kts
15-Jun-20 21:50 34.372439 -101.704087 97 29238ft 527kts
15-Jun-20 21:51 34.354217 -101.528209 97 29238ft 528kts
15-Jun-20 21:52 34.335515 -101.351758 97 29238ft 528kts
15-Jun-20 21:53 34.316014 -101.175587 98 29237ft 528kts
15-Jun-20 21:54 34.295547 -100.999940 98 29233ft 528kts
15-Jun-20 21:55 34.274486 -100.823660 99 29187ft 529kts
15-Jun-20 21:56 34.253052 -100.646655 99 29182ft 529kts
15-Jun-20 21:57 34.231336 -100.470840 99 29183ft 529kts
15-Jun-20 21:58 34.209506 -100.294766 99 29182ft 529kts
15-Jun-20 21:59 34.180395 -100.121117 107 29183ft 526kts
15-Jun-20 21:59 34.142082 -99.981917 109 29183ft 526kts
15-Jun-20 22:01 34.070588 -99.796478 124 29178ft 520kts
15-Jun-20 22:02 34.028916 -99.630559 103 29178ft 521kts
15-Jun-20 22:03 33.990876 -99.461844 105 29160ft 522kts
15-Jun-20 22:04 33.952271 -99.293316 106 29154ft 523kts
15-Jun-20 22:04 33.916745 -99.153533 108 29155ft 523kts
15-Jun-20 22:06 33.862576 -98.969854 111 29184ft 523kts
15-Jun-20 22:06 33.819594 -98.833576 111 29205ft 523kts
15-Jun-20 22:07 33.770775 -98.668802 109 29201ft 525kts
15-Jun-20 22:08 33.726610 -98.502298 107 28266ft 519kts
15-Jun-20 22:09 33.684355 -98.341309 109 26700ft 511kts
15-Jun-20 22:10 33.641206 -98.187912 110 24995ft 502kts
15-Jun-20 22:11 33.595704 -98.031130 110 23099ft 490kts
15-Jun-20 22:12 33.552836 -97.880732 109 21058ft 465kts
15-Jun-20 22:13 33.519789 -97.734312 104 18958ft 446kts
15-Jun-20 22:14 33.492131 -97.595394 104 16852ft 407kts
15-Jun-20 22:15 33.435393 -97.492221 131 14734ft 352kts
15-Jun-20 22:16 33.374243 -97.408514 132 12608ft 314kts
15-Jun-20 22:17 33.317394 -97.333770 135 11066ft 290kts
15-Jun-20 22:18 33.258531 -97.263885 136 10791ft 309kts
15-Jun-20 22:19 33.187551 -97.193780 147 9420ft 353kts
15-Jun-20 22:20 33.108997 -97.134044 148 7724ft 291kts
15-Jun-20 22:21 33.051957 -97.083440 139 6019ft 243kts
15-Jun-20 22:22 33.005297 -97.030727 134 4617ft 213kts
15-Jun-20 22:23 32.967192 -96.984786 134 3520ft 181kts
15-Jun-20 22:24 32.935075 -96.947007 134 2608ft 149kts
15-Jun-20 22:25 32.907788 -96.915300 134 1900ft 135kts
15-Jun-20 22:26 32.880473 -96.883668 134 1219ft 151kts
15-Jun-20 22:27 32.852945 -96.851785 136 488ft 111kts
15-Jun-20 22:28 32.848298 -96.844961 42 494ft 0kts
15-Jun-20 22:29 32.848298 -96.844961 42 494ft 0kts
15-Jun-20 22:30 32.848298 -96.844961 42 494ft 0kts
15-Jun-20 22:31 32.848298 -96.844961 42 494ft 0kts
15-Jun-20 22:32 32.848298 -96.844961 42 494ft 0kts
15-Jun-20 22:33 32.848298 -96.844961 42 494ft 0kts

Navigation Log

Ident Type
Flight plan parsing failed, navigation log unavailable